Terminal Aerodrome Forecast
Issued by NWS

Home | Current Version | Previous Version | Text Only | Print | Product List | Glossary On
Versions: 1 2 3 4 5 6 7 8 9 10 11 12 13 14 15 16 17 18 19 20 21 22 23 24 25 26
000
FTUS43 KSGF 080500
TAFBBG
TAF
KBBG 080525Z 0806/0906 00000KT 6SM -SHRA BR SCT008 OVC020
      TEMPO 0806/0809 2SM BR BKN008 OVC030
     FM080900 00000KT 4SM -SHRA BR BKN008 OVC025 WS020/20035KT
      TEMPO 0810/0814 1SM SHRA BR OVC008
     FM081700 21004KT 4SM -SHRA BR BKN010 OVC025
     FM090000 23003KT 4SM BR OVC009=

USA.gov is the U.S. government's official web portal to all federal, state and local government web resources and services.